Información Nacional e Internacional

lunes, 15 de diciembre de 2014

El Karting Río Paraná terminó su segunda temporada en Paraná, realizando su 10ma y última fecha.

Con más de 60 karts en pista, culminó el domingo 14, la temporada 2014 del Karting Río Paraná.

Un cierre de temporada que marca el crecimiento de la categoría que fiscaliza la Federación Automovilística Entrerriana (FAE) y que piensa ya en lo que será la temporada 2015, la cual se prevé iniciar en febrero del próximo año.

Disposición del Comisario Deportivo

De acuerdo a lo informado por el Comisario Deportivo y una vez analizada las imágenes -luego de finalizar la actividad- fue reclasificado en la Categoría Pre Juniors, Estanislao Cavenaghi.

Quien fuera sancionado por una maniobra durante el desarrollo de la final y que, al observarse los videos, no tuvo responsabilidad alguna en la maniobra con el kart número 21 de Alex Weppler.

FUENTE: PRENSA KARTING RÍO PARANÁ


Así lo dispuso el Comisario Deportivo, razón por la cual las clasificaciones oficiales son las siguientes:

ESCUELA
1º 8 MANUEL BORGERT 10 07:59.821
2º 45 IÑAKI ARRIAS 10 08:03.090 03.269
3º 93 AGUSTIN ELZENER 10 08:03.714 03.893

PRE-JUNIORS
1º 7 HERBER LAMBOGLIA 10 08:00.038
2º 12 AGUSTIN MARTINEZ 10 08:00.372 00.334
3º 4 ESTANISLAO CAVENAGHI 10 08:02.285 02.247
4º 21 ALEX WEPPLER 10 08:03.697 03.659
5º 18 NAUHEL SCHNEIDER 10 08:11.261 11.223
6º 79 ERICO RODRIGUEZ 10 08:14.790 14.752

JUNIORS
1º 10 FACUNDO MAIN 12 08:57.628
2º 5 JUAN PABLO CABROL 12 09:01.169 03.541
3º 12 AGUSTIN MARTINEZ 12 09:02.637 05.009
4º 18 NAHUEL SCHNEIDER 12 09:05.976 08.348
5º 3 JOAQUIN JUSID 12 09:06.549 08.921
6º 16 MATEO GUZMAN 12 09:06.567 08.939
7º 8 FRANCO BOZO 12 09:07.075 09.447
8º 74 ELIAS MULLER 12 09:09.881 12.253
9º 37 FEDERICO POSSETTI 12 09:11.188 13.559
10º 2 AGUSTIN FURNO 12 09:12.617 14.989
11º 1 MATIAS JUSID 12 09:15.443 17.815
12º 66 ZAIR ASEF 12 09:16.042 18.414
13º 17 LUCAS CHEADE 12 09:17.127 19.499
14º 21 GONZALO GASPOZ 12 09:19.274 21.646
15º 53 KATIA PRALONG 12 09:21.275 23.647
16º 19 IVON SALAS 12 09:24.282 26.654

MÁQUINA N° 53 +5 SEGUNDOS DE RECARGO POR TOQUE A MÁQUINA N° 21.


SENIORS
1º 20 FACUNDO JOHNSTON 12 09:06.391
2º 72 CHRISTIAN STEHLE 12 09:12.011 05.620
3º 19 FEDERICO LARROSA 12 09:12.887 06.496
4º 87 LISANDRO RISSETTO 12 09:13.390 06.999
5º 39 SANTIAGO RUIZ 12 09:17.070 10.679
6º 8 JOHAN NEUMANN 12 09:20.101 13.710
7º 1 FRANCISCO CAVENAGHI 12 09:20.110 13.719
8º 12 MAXIMILIANO ACOSTA 12 09:20.179 13.788
9º 15 ELIAN DREILING 12 09:24.252 17.861
10º 5 OSVALDO BALCAZA 12 09:31.377 24.986
11º 11 FEDERIGO GRIBAUDO 12 09:33.871 27.480
12º 23 FACUNDO LARROSA 12 09:35.529 29.138
13º 69 DAVID GUESTRIN 12 09:35.874 29.483
14º 303 JULIAN STIPECH

SUPER KART
1º 3 MARIANO PERELSTEIN 12 09:16.574
2º 8 FACUNDO BOZO 12 09:17.698 01.124
3º 10 JUAN BAUTISTA MOINE 12 09:23.690 07.116
4º 22 LEANDRO TROSSERO 12 09:23.763 07.189
5º 333 SANTIAGO RUIZ 12 09:24.159 07.585
6º 97 ALEJANDRO PAPALEO 12 09:30.954 14.380
7º 37 DIEGO SAN JUAN 12 09:31.124 14.550
8º 303 JULIAN STIPECH 12 09:38.263 21.689
9º 32 JORGE FINOLI 12 09:44.890 28.316
10º 93 ROBERTO ELZENER 12 09:50.048 33.474
11º 24 ANDRES BREGANT 9 07:10.269 3 laps
12º 58 JERONIMO SCHEPENS 3 02:39.288 9 laps

dq 67 PABLO BURDESE 6 04:37.295

MÁQUINA N° 67 EXCLUIDO CON BANDERA NEGRA POR TOQUE A MÁQUINA N° 58.

RESULTADOS COMPLETOS

FUENTE: MY LAPS.
FOTOS: JAVIER GAUNA.

No hay comentarios:

Related Posts Plugin for WordPress, Blogger...